createdAt,value
2017-09-20T00:00:35.416Z,98815.25
2017-09-20T00:03:03.834Z,98819.56
2017-09-20T00:05:32.202Z,98813.38
2017-09-20T00:08:04.877Z,98810.91
2017-09-20T00:10:37.256Z,98814.51
2017-09-20T00:13:10.249Z,98810.65
2017-09-20T00:15:44.861Z,98814.47
2017-09-20T00:18:13.184Z,98813.90
2017-09-20T00:20:41.531Z,98809.48
2017-09-20T00:23:11.524Z,98807.09
2017-09-20T00:25:39.842Z,98806.52
2017-09-20T00:28:08.302Z,98805.78
2017-09-20T00:30:38.759Z,98809.17
2017-09-20T00:33:07.528Z,98805.09
2017-09-20T00:35:37.622Z,98805.72
2017-09-20T00:38:06.113Z,98806.90
2017-09-20T00:40:40.251Z,98807.59
2017-09-20T00:43:08.595Z,98807.89
2017-09-20T00:45:37.013Z,98807.10
2017-09-20T00:48:05.356Z,98812.05
2017-09-20T00:50:34.162Z,98814.73
2017-09-20T00:53:03.239Z,98815.19
2017-09-20T00:55:37.742Z,98817.12
2017-09-20T00:58:06.253Z,98815.02
2017-09-20T01:00:48.097Z,98812.22
2017-09-20T01:03:16.542Z,98813.63
2017-09-20T01:05:47.064Z,98815.43
2017-09-20T01:08:15.465Z,98815.60
2017-09-20T01:10:44.003Z,98816.66
2017-09-20T01:13:15.913Z,98811.84
2017-09-20T01:15:45.209Z,98811.11
2017-09-20T01:18:14.507Z,98812.80
2017-09-20T01:21:01.444Z,98802.20
2017-09-20T01:23:37.220Z,98809.42
2017-09-20T01:26:05.800Z,98800.97
2017-09-20T01:28:39.450Z,98802.88
2017-09-20T01:31:13.876Z,98803.19
2017-09-20T01:33:43.488Z,98807.20
2017-09-20T01:36:11.959Z,98809.11
2017-09-20T01:38:40.260Z,98812.10
2017-09-20T01:41:09.581Z,98809.88
2017-09-20T01:43:37.937Z,98807.47
2017-09-20T01:46:07.253Z,98801.48
2017-09-20T01:48:36.529Z,98805.77
2017-09-20T01:51:09.537Z,98805.51
2017-09-20T01:53:39.768Z,98807.37
2017-09-20T01:56:09.039Z,98804.91
2017-09-20T01:58:37.430Z,98806.19
2017-09-20T02:01:10.593Z,98803.70
2017-09-20T02:03:40.028Z,98809.12
2017-09-20T02:06:09.329Z,98808.92
2017-09-20T02:08:38.940Z,98804.62
2017-09-20T02:11:08.215Z,98806.28
2017-09-20T02:13:36.608Z,98807.39
2017-09-20T02:16:06.844Z,98803.22
2017-09-20T02:18:39.810Z,98815.38
2017-09-20T02:21:08.210Z,98812.36
2017-09-20T02:23:38.421Z,98804.98
2017-09-20T02:26:08.921Z,98801.41
2017-09-20T02:28:37.327Z,98810.67
2017-09-20T02:31:06.641Z,98803.05
2017-09-20T02:33:35.964Z,98800.27
2017-09-20T02:36:05.235Z,98805.83
2017-09-20T02:38:33.647Z,98808.34
2017-09-20T02:41:01.995Z,98806.77
2017-09-20T02:43:32.253Z,98808.80
2017-09-20T02:46:00.609Z,98801.97
2017-09-20T02:48:29.914Z,98808.89
2017-09-20T02:51:02.322Z,98801.75
2017-09-20T02:53:30.664Z,98804.64
2017-09-20T02:56:01.828Z,98804.30
2017-09-20T02:58:34.194Z,98801.77
2017-09-20T03:01:05.680Z,98798.84
2017-09-20T03:03:34.931Z,98800.80
2017-09-20T03:06:05.432Z,98809.95
2017-09-20T03:08:34.762Z,98796.17
2017-09-20T03:11:04.086Z,98793.91
2017-09-20T03:13:37.084Z,98795.72
2017-09-20T03:16:11.849Z,98787.95
2017-09-20T03:18:43.079Z,98786.93
2017-09-20T03:21:12.323Z,98785.47
2017-09-20T03:23:41.115Z,98782.37
2017-09-20T03:26:09.415Z,98772.41
2017-09-20T03:28:51.794Z,98774.64
2017-09-20T03:31:23.394Z,98786.65
2017-09-20T03:33:52.678Z,98784.72
2017-09-20T03:36:21.995Z,98782.98
2017-09-20T03:38:51.281Z,98788.40
2017-09-20T03:41:20.840Z,98787.67
2017-09-20T03:43:53.261Z,98794.02
2017-09-20T03:46:22.842Z,98794.83
2017-09-20T03:48:51.241Z,98798.27
2017-09-20T03:51:19.557Z,98797.39
2017-09-20T03:53:48.927Z,98807.29
2017-09-20T03:56:18.224Z,98807.62
2017-09-20T03:58:50.922Z,98798.19
2017-09-20T04:01:20.230Z,98810.11
2017-09-20T04:03:49.744Z,98807.61
2017-09-20T04:06:18.075Z,98806.21
2017-09-20T04:08:46.495Z,98799.98
2017-09-20T04:11:16.831Z,98805.47
2017-09-20T04:13:46.980Z,98800.59
2017-09-20T04:16:15.354Z,98805.75
2017-09-20T04:18:43.721Z,98799.89
2017-09-20T04:21:12.367Z,98799.19
2017-09-20T04:23:40.702Z,98804.77
2017-09-20T04:26:12.392Z,98804.33
2017-09-20T04:28:41.929Z,98803.22
2017-09-20T04:31:10.314Z,98804.35
2017-09-20T04:33:38.711Z,98809.59
2017-09-20T04:36:07.084Z,98801.78
2017-09-20T04:38:37.336Z,98805.87
2017-09-20T04:41:05.675Z,98802.99
2017-09-20T04:43:34.010Z,98806.06
2017-09-20T04:46:02.321Z,98809.22
2017-09-20T04:48:31.424Z,98816.00
2017-09-20T04:51:00.533Z,98813.49
2017-09-20T04:53:28.858Z,98811.80
2017-09-20T04:55:57.195Z,98812.52
2017-09-20T04:58:25.508Z,98808.06
2017-09-20T05:00:54.343Z,98814.05
2017-09-20T05:03:22.654Z,98808.00
2017-09-20T05:05:51.751Z,98816.83
2017-09-20T05:08:20.079Z,98818.16
2017-09-20T05:10:48.443Z,98823.40
2017-09-20T05:13:16.808Z,98823.03
2017-09-20T05:15:45.121Z,98820.95
2017-09-20T05:18:14.634Z,98835.30
2017-09-20T05:20:42.952Z,98831.16
2017-09-20T05:23:11.269Z,98834.33
2017-09-20T05:25:39.610Z,98834.50
2017-09-20T05:28:08.021Z,98832.23
2017-09-20T05:30:36.739Z,98834.41
2017-09-20T05:33:05.052Z,98831.58
2017-09-20T05:35:33.370Z,98832.38
2017-09-20T05:38:01.743Z,98838.67
2017-09-20T05:40:30.047Z,98836.00
2017-09-20T05:42:58.400Z,98840.97
2017-09-20T05:45:26.755Z,98840.66
2017-09-20T05:47:57.026Z,98843.00
2017-09-20T05:50:25.361Z,98838.48
2017-09-20T05:52:53.694Z,98835.92
2017-09-20T05:55:22.802Z,98833.97
2017-09-20T05:57:51.141Z,98834.19
2017-09-20T06:00:19.489Z,98828.68
2017-09-20T06:02:47.802Z,98819.87
2017-09-20T06:05:16.143Z,98821.55
2017-09-20T06:07:45.249Z,98826.73
2017-09-20T06:10:13.624Z,98827.06
2017-09-20T06:12:44.115Z,98826.81
2017-09-20T06:15:12.530Z,98829.86
2017-09-20T06:17:40.845Z,98832.57
2017-09-20T06:20:09.205Z,98839.97
2017-09-20T06:22:38.423Z,98843.20
2017-09-20T06:25:06.771Z,98844.92
2017-09-20T06:27:35.101Z,98852.59
2017-09-20T06:30:03.684Z,98841.81
2017-09-20T06:32:32.002Z,98844.28
2017-09-20T06:35:00.320Z,98846.41
2017-09-20T06:37:28.666Z,98849.45
2017-09-20T06:39:57.002Z,98855.50
2017-09-20T06:42:25.328Z,98851.44
2017-09-20T06:44:53.649Z,98854.70
2017-09-20T06:47:21.995Z,98853.83
2017-09-20T06:49:50.305Z,98857.30
2017-09-20T06:52:18.654Z,98864.20
2017-09-20T06:54:47.004Z,98857.98
2017-09-20T06:57:15.330Z,98856.44
2017-09-20T06:59:43.977Z,98860.68
2017-09-20T07:02:12.310Z,98861.12
2017-09-20T07:04:41.019Z,98862.02
2017-09-20T07:07:09.341Z,98861.86
2017-09-20T07:09:37.670Z,98856.98
2017-09-20T07:12:06.793Z,98858.34
2017-09-20T07:14:35.130Z,98855.43
2017-09-20T07:17:03.451Z,98861.81
2017-09-20T07:19:31.779Z,98864.66
2017-09-20T07:22:00.171Z,98856.08
2017-09-20T07:24:28.501Z,98859.33
2017-09-20T07:26:56.867Z,98850.92
2017-09-20T07:29:25.220Z,98851.48
2017-09-20T07:31:53.548Z,98849.35
2017-09-20T07:34:22.801Z,98856.11
2017-09-20T07:36:51.151Z,98853.84
2017-09-20T07:39:20.118Z,98854.09
2017-09-20T07:41:48.453Z,98857.83
2017-09-20T07:44:17.563Z,98853.89
2017-09-20T07:46:45.898Z,98862.17
2017-09-20T07:49:14.235Z,98867.05
2017-09-20T07:51:42.581Z,98862.77
2017-09-20T07:54:10.903Z,98857.33
2017-09-20T07:56:39.730Z,98861.52
2017-09-20T07:59:08.064Z,98865.55
2017-09-20T08:01:36.402Z,98867.39
2017-09-20T08:04:04.753Z,98874.69
2017-09-20T08:06:33.075Z,98872.80
2017-09-20T08:09:01.447Z,98876.11
2017-09-20T08:11:29.773Z,98867.43
2017-09-20T08:13:58.196Z,98863.93
2017-09-20T08:16:26.520Z,98862.19
2017-09-20T08:18:54.885Z,98867.94
2017-09-20T08:21:23.245Z,98868.97
2017-09-20T08:23:51.567Z,98868.67
2017-09-20T08:26:20.034Z,98869.86
2017-09-20T08:28:49.284Z,98870.19
2017-09-20T08:31:18.103Z,98869.31
2017-09-20T08:33:46.429Z,98870.69
2017-09-20T08:36:14.759Z,98866.20
2017-09-20T08:38:43.154Z,98868.24
2017-09-20T08:41:11.492Z,98861.44
2017-09-20T08:43:39.849Z,98868.45
2017-09-20T08:46:08.172Z,98871.76
2017-09-20T08:48:36.543Z,98869.03
2017-09-20T08:51:04.867Z,98869.18
2017-09-20T08:53:33.204Z,98870.91
2017-09-20T08:56:01.587Z,98866.58
2017-09-20T08:58:30.704Z,98871.34
2017-09-20T09:01:03.073Z,98875.30
2017-09-20T09:03:32.155Z,98876.69
2017-09-20T09:06:00.502Z,98877.71
2017-09-20T09:08:29.594Z,98874.01
2017-09-20T09:10:57.942Z,98871.83
2017-09-20T09:13:26.290Z,98873.72
2017-09-20T09:15:54.673Z,98874.03
2017-09-20T09:18:23.035Z,98868.73
2017-09-20T09:20:51.382Z,98870.33
2017-09-20T09:23:19.714Z,98871.42
2017-09-20T09:25:48.842Z,98870.44
2017-09-20T09:28:17.168Z,98871.73
2017-09-20T09:30:45.883Z,98872.64
2017-09-20T09:33:14.230Z,98872.09
2017-09-20T09:35:42.574Z,98871.16
2017-09-20T09:38:10.920Z,98875.67
2017-09-20T09:40:40.024Z,98875.42
2017-09-20T09:43:08.373Z,98872.36
2017-09-20T09:45:38.244Z,98875.70
2017-09-20T09:48:07.020Z,98872.75
2017-09-20T09:50:35.370Z,98871.27
2017-09-20T09:53:03.711Z,98865.80
2017-09-20T09:55:32.079Z,98867.56
2017-09-20T09:58:00.425Z,98872.87
2017-09-20T10:00:29.545Z,98868.05
2017-09-20T10:02:57.891Z,98866.04
2017-09-20T10:05:26.290Z,98871.63
2017-09-20T10:07:54.643Z,98868.00
2017-09-20T10:10:22.971Z,98872.44
2017-09-20T10:12:51.330Z,98871.45
2017-09-20T10:15:19.679Z,98876.30
2017-09-20T10:17:48.033Z,98880.81
2017-09-20T10:20:16.357Z,98875.22
2017-09-20T10:22:45.481Z,98872.41
2017-09-20T10:25:13.838Z,98877.52
2017-09-20T10:27:42.992Z,98874.60
2017-09-20T10:30:11.337Z,98870.02
2017-09-20T10:32:39.669Z,98871.83
2017-09-20T10:35:08.036Z,98868.75
2017-09-20T10:37:36.375Z,98869.45
2017-09-20T10:40:04.998Z,98866.66
2017-09-20T10:42:33.313Z,98867.76
2017-09-20T10:45:01.707Z,98871.16
2017-09-20T10:47:30.148Z,98870.27
2017-09-20T10:49:58.538Z,98873.59
2017-09-20T10:52:26.894Z,98866.53
2017-09-20T10:54:55.328Z,98868.47
2017-09-20T10:57:24.209Z,98869.14
2017-09-20T10:59:52.554Z,98862.05
2017-09-20T11:02:20.893Z,98856.81
2017-09-20T11:04:49.289Z,98854.89
2017-09-20T11:07:17.632Z,98851.30
2017-09-20T11:09:45.982Z,98846.55
2017-09-20T11:12:14.318Z,98843.25
2017-09-20T11:14:42.986Z,98842.73
2017-09-20T11:17:11.302Z,98842.34
2017-09-20T11:19:39.628Z,98845.83
2017-09-20T11:22:07.980Z,98847.19
2017-09-20T11:24:36.328Z,98840.31
2017-09-20T11:27:04.676Z,98846.66
2017-09-20T11:29:33.004Z,98843.66
2017-09-20T11:32:01.732Z,98836.13
2017-09-20T11:34:30.066Z,98841.75
2017-09-20T11:36:58.391Z,98836.98
2017-09-20T11:39:26.805Z,98831.61
2017-09-20T11:41:55.136Z,98838.20
2017-09-20T11:44:24.260Z,98835.57
2017-09-20T11:46:52.585Z,98826.44
2017-09-20T11:49:21.428Z,98825.03
2017-09-20T11:51:49.795Z,98826.75
2017-09-20T11:54:18.125Z,98824.10
2017-09-20T11:56:46.490Z,98824.64
2017-09-20T11:59:14.825Z,98822.98
2017-09-20T12:01:43.188Z,98821.15
2017-09-20T12:04:12.447Z,98824.44
2017-09-20T12:06:40.827Z,98826.48
2017-09-20T12:09:09.153Z,98815.54
2017-09-20T12:11:37.581Z,98813.01
2017-09-20T12:14:05.901Z,98805.75
2017-09-20T12:16:34.321Z,98804.77
2017-09-20T12:19:03.442Z,98804.19
2017-09-20T12:21:31.756Z,98810.41
2017-09-20T12:24:00.111Z,98808.79
2017-09-20T12:26:28.428Z,98808.70
2017-09-20T12:28:56.753Z,98812.75
2017-09-20T12:31:25.933Z,98813.25
2017-09-20T12:33:54.304Z,98815.39
2017-09-20T12:36:23.437Z,98809.61
2017-09-20T12:38:52.655Z,98808.98
2017-09-20T12:41:21.582Z,98811.43
2017-09-20T12:43:49.911Z,98807.80
2017-09-20T12:46:18.231Z,98809.11
2017-09-20T12:48:46.575Z,98805.57
2017-09-20T12:51:14.901Z,98803.03
2017-09-20T12:53:43.258Z,98806.30
2017-09-20T12:56:11.610Z,98806.67
2017-09-20T12:58:40.283Z,98808.30
2017-09-20T13:01:08.616Z,98806.08
2017-09-20T13:03:36.944Z,98806.70
2017-09-20T13:06:05.465Z,98803.44
2017-09-20T13:08:33.804Z,98795.12
2017-09-20T13:11:02.158Z,98807.30
2017-09-20T13:13:30.475Z,98794.70
2017-09-20T13:15:58.805Z,98794.52
2017-09-20T13:18:27.170Z,98792.20
2017-09-20T13:20:55.487Z,98790.47
2017-09-20T13:23:23.820Z,98784.78
2017-09-20T13:25:52.795Z,98782.64
2017-09-20T13:28:21.190Z,98784.77
2017-09-20T13:30:50.297Z,98787.30
2017-09-20T13:33:18.627Z,98781.20
2017-09-20T13:35:47.887Z,98780.27
2017-09-20T13:38:16.212Z,98785.57
2017-09-20T13:40:44.564Z,98782.64
2017-09-20T13:43:12.905Z,98779.08
2017-09-20T13:45:41.615Z,98783.77
2017-09-20T13:48:09.936Z,98776.55
2017-09-20T13:50:38.253Z,98778.47
2017-09-20T13:53:06.612Z,98772.09
2017-09-20T13:55:36.128Z,98775.55
2017-09-20T13:58:05.423Z,98767.13
2017-09-20T14:00:33.758Z,98752.58
2017-09-20T14:03:02.867Z,98754.53
2017-09-20T14:05:31.202Z,98752.28
2017-09-20T14:07:59.582Z,98760.38
2017-09-20T14:10:27.921Z,98757.03
2017-09-20T14:12:56.262Z,98760.64
2017-09-20T14:15:29.320Z,98758.72
2017-09-20T14:17:57.641Z,98755.56
2017-09-20T14:20:26.321Z,98761.42
2017-09-20T14:22:55.479Z,98752.81
2017-09-20T14:25:23.803Z,98756.47
2017-09-20T14:27:52.188Z,98759.72
2017-09-20T14:30:20.522Z,98756.50
2017-09-20T14:32:48.912Z,98754.16
2017-09-20T14:35:17.306Z,98762.59
2017-09-20T14:37:46.297Z,98757.42
2017-09-20T14:40:15.509Z,98757.09
2017-09-20T14:42:43.901Z,98751.40
2017-09-20T14:45:12.277Z,98749.72
2017-09-20T14:47:40.604Z,98757.95
2017-09-20T14:50:08.986Z,98749.34
2017-09-20T14:52:37.317Z,98747.64
2017-09-20T14:55:06.880Z,98744.25
2017-09-20T14:57:35.231Z,98748.86
2017-09-20T15:00:04.420Z,98742.98
2017-09-20T15:02:32.778Z,98754.59
2017-09-20T15:05:02.275Z,98746.17
2017-09-20T15:07:31.617Z,98752.81
2017-09-20T15:10:05.935Z,98747.00
2017-09-20T15:12:35.449Z,98745.44
2017-09-20T15:15:06.671Z,98747.66
2017-09-20T15:17:35.026Z,98748.98
2017-09-20T15:20:03.389Z,98746.13
2017-09-20T15:22:31.732Z,98756.10
2017-09-20T15:25:00.094Z,98755.91
2017-09-20T15:27:28.426Z,98757.95
2017-09-20T15:29:56.808Z,98756.91
2017-09-20T15:32:25.153Z,98750.03
2017-09-20T15:34:53.659Z,98750.64
2017-09-20T15:37:22.497Z,98754.99
2017-09-20T15:39:50.820Z,98751.57
2017-09-20T15:42:19.163Z,98750.81
2017-09-20T15:44:47.526Z,98754.17
2017-09-20T15:47:15.858Z,98756.44
2017-09-20T15:49:44.209Z,98752.35
2017-09-20T15:52:12.544Z,98749.10
2017-09-20T15:54:40.945Z,98744.19
2017-09-20T15:57:10.304Z,98754.75
2017-09-20T15:59:38.647Z,98748.52
2017-09-20T16:02:06.978Z,98746.98
2017-09-20T16:04:35.390Z,98749.90
2017-09-20T16:07:04.473Z,98742.44
2017-09-20T16:09:33.279Z,98750.05
2017-09-20T16:12:03.583Z,98746.20
2017-09-20T16:14:32.686Z,98745.41
2017-09-20T16:17:01.030Z,98742.13
2017-09-20T16:19:29.396Z,98745.88
2017-09-20T16:21:58.133Z,98741.06
2017-09-20T16:24:26.477Z,98751.82
2017-09-20T16:26:54.818Z,98757.99
2017-09-20T16:29:23.182Z,98759.94
2017-09-20T16:31:52.271Z,98760.14
2017-09-20T16:34:21.396Z,98760.08
2017-09-20T16:36:50.285Z,98757.80
2017-09-20T16:39:19.795Z,98763.25
2017-09-20T16:41:50.330Z,98760.15
2017-09-20T16:44:31.222Z,98756.73
2017-09-20T16:47:01.943Z,98767.02
2017-09-20T16:49:33.122Z,98766.73
2017-09-20T16:52:01.476Z,98767.52
2017-09-20T16:54:29.906Z,98768.02
2017-09-20T16:56:58.239Z,98768.55
2017-09-20T16:59:26.606Z,98771.89
2017-09-20T17:01:56.866Z,98775.27
2017-09-20T17:04:26.085Z,98780.13
2017-09-20T17:06:56.227Z,98778.78
2017-09-20T17:09:25.570Z,98773.13
2017-09-20T17:11:56.171Z,98774.91
2017-09-20T17:14:41.901Z,98772.70
2017-09-20T17:17:10.276Z,98765.64
2017-09-20T17:19:39.051Z,98769.56
2017-09-20T17:22:07.624Z,98769.16
2017-09-20T17:24:36.064Z,98774.86
2017-09-20T17:27:04.683Z,98775.42
2017-09-20T17:29:33.141Z,98773.66
2017-09-20T17:32:01.576Z,98779.37
2017-09-20T17:34:30.348Z,98781.56
2017-09-20T17:36:58.911Z,98779.25
2017-09-20T17:39:27.307Z,98788.80
2017-09-20T17:41:55.663Z,98800.14
2017-09-20T17:44:52.425Z,98799.52
2017-09-20T17:47:21.530Z,98798.05
2017-09-20T17:49:53.112Z,98798.50
2017-09-20T17:52:35.510Z,98802.08
2017-09-20T17:55:10.428Z,98809.07
2017-09-20T17:57:39.189Z,98812.20
2017-09-20T18:00:07.941Z,98816.67
2017-09-20T18:02:44.738Z,98822.79
2017-09-20T18:05:13.537Z,98829.80
2017-09-20T18:07:42.786Z,98828.45
2017-09-20T18:10:11.153Z,98832.13
2017-09-20T18:12:39.510Z,98837.86
2017-09-20T18:15:07.898Z,98841.20
2017-09-20T18:17:37.008Z,98844.95
2017-09-20T18:20:06.539Z,98849.92
2017-09-20T18:22:34.911Z,98848.23
2017-09-20T18:25:03.310Z,98854.52
2017-09-20T18:27:32.908Z,98854.89
2017-09-20T18:30:05.535Z,98852.58
2017-09-20T18:32:38.255Z,98849.66
2017-09-20T18:35:07.099Z,98849.44
2017-09-20T18:37:35.624Z,98853.26
2017-09-20T18:40:03.965Z,98848.08
2017-09-20T18:42:34.231Z,98854.90
2017-09-20T18:45:06.270Z,98858.07
2017-09-20T18:47:35.602Z,98849.50
2017-09-20T18:50:04.891Z,98849.33
2017-09-20T18:52:33.261Z,98854.97
2017-09-20T18:55:02.664Z,98851.93
2017-09-20T18:57:34.343Z,98851.89
2017-09-20T19:00:05.240Z,98853.06
2017-09-20T19:02:33.573Z,98852.97
2017-09-20T19:05:01.920Z,98853.22
2017-09-20T19:07:30.919Z,98853.70
2017-09-20T19:09:59.288Z,98858.11
2017-09-20T19:12:27.965Z,98857.58
2017-09-20T19:14:57.075Z,98854.89
2017-09-20T19:17:26.565Z,98855.16
2017-09-20T19:20:00.509Z,98854.22
2017-09-20T19:22:28.879Z,98856.84
2017-09-20T19:24:58.216Z,98854.22
2017-09-20T19:27:26.553Z,98858.42
2017-09-20T19:29:55.851Z,98853.20
2017-09-20T19:32:26.409Z,98856.92
2017-09-20T19:35:06.080Z,98855.75
2017-09-20T19:40:08.418Z,98858.63
2017-09-20T19:42:38.620Z,98852.88
2017-09-20T19:45:08.898Z,98853.20
2017-09-20T19:47:37.237Z,98854.67
2017-09-20T19:50:06.871Z,98851.00
2017-09-20T19:52:47.885Z,98851.35
2017-09-20T19:55:16.243Z,98855.48
2017-09-20T19:57:44.614Z,98863.17
2017-09-20T20:00:16.348Z,98865.94
2017-09-20T20:02:45.041Z,98866.69
2017-09-20T20:05:13.419Z,98872.22
2017-09-20T20:07:41.794Z,98869.86
2017-09-20T20:10:10.252Z,98867.28
2017-09-20T20:12:39.785Z,98870.70
2017-09-20T20:15:09.094Z,98871.20
2017-09-20T20:17:37.474Z,98871.43
2017-09-20T20:20:05.841Z,98871.35
2017-09-20T20:22:34.949Z,98877.33
2017-09-20T20:25:03.281Z,98873.33
2017-09-20T20:27:32.008Z,98870.30
2017-09-20T20:30:01.098Z,98869.55
2017-09-20T20:32:29.436Z,98871.81
2017-09-20T20:34:58.284Z,98869.95
2017-09-20T20:37:26.621Z,98867.48
2017-09-20T20:39:54.967Z,98871.31
2017-09-20T20:42:23.729Z,98873.28
2017-09-20T20:44:52.330Z,98873.12
2017-09-20T20:47:20.655Z,98869.03
2017-09-20T20:49:49.840Z,98876.32
2017-09-20T20:52:18.215Z,98877.87
2017-09-20T20:54:46.552Z,98874.41
2017-09-20T20:57:14.967Z,98873.59
2017-09-20T20:59:43.334Z,98872.84
2017-09-20T21:02:11.648Z,98879.28
2017-09-20T21:04:40.008Z,98880.20
2017-09-20T21:07:08.333Z,98881.42
2017-09-20T21:09:40.601Z,98875.72
2017-09-20T21:12:08.925Z,98875.39
2017-09-20T21:14:37.265Z,98877.17
2017-09-20T21:17:06.374Z,98879.64
2017-09-20T21:19:34.709Z,98880.91
2017-09-20T21:22:03.065Z,98884.10
2017-09-20T21:24:31.390Z,98881.49
2017-09-20T21:27:00.498Z,98882.46
2017-09-20T21:29:29.692Z,98891.33
2017-09-20T21:31:58.825Z,98887.98
2017-09-20T21:34:27.196Z,98891.64
2017-09-20T21:36:55.510Z,98895.55
2017-09-20T21:39:23.861Z,98904.26
2017-09-20T21:41:52.187Z,98896.27
2017-09-20T21:44:20.899Z,98895.17
2017-09-20T21:46:50.009Z,98896.31
2017-09-20T21:49:18.931Z,98893.13
2017-09-20T21:51:48.030Z,98881.70
2017-09-20T21:54:18.388Z,98888.07
2017-09-20T21:56:46.945Z,98883.55
2017-09-20T21:59:15.529Z,98880.02
2017-09-20T22:01:44.393Z,98882.72
2017-09-20T22:04:13.814Z,98881.23
2017-09-20T22:06:43.073Z,98873.71
2017-09-20T22:09:13.298Z,98878.18
2017-09-20T22:11:42.907Z,98878.61
2017-09-20T22:14:12.011Z,98887.64
2017-09-20T22:16:58.923Z,98886.13
2017-09-20T22:19:45.028Z,98882.36
2017-09-20T22:22:31.455Z,98883.63
2017-09-20T22:25:17.795Z,98892.11
2017-09-20T22:27:47.719Z,98885.04
2017-09-20T22:30:16.100Z,98888.95
2017-09-20T22:32:44.470Z,98883.89
2017-09-20T22:35:12.850Z,98881.31
2017-09-20T22:37:41.239Z,98880.66
2017-09-20T22:40:09.971Z,98884.31
2017-09-20T22:42:38.414Z,98885.66
2017-09-20T22:45:08.649Z,98887.06
2017-09-20T22:47:39.031Z,98890.22
2017-09-20T22:50:10.949Z,98889.91
2017-09-20T22:52:40.499Z,98887.89
2017-09-20T22:55:08.915Z,98888.70
2017-09-20T22:57:39.140Z,98888.44
2017-09-20T23:00:10.576Z,98892.34
2017-09-20T23:02:38.971Z,98889.64
2017-09-20T23:05:08.068Z,98893.03
2017-09-20T23:07:38.199Z,98897.63
2017-09-20T23:10:07.302Z,98900.70
2017-09-20T23:12:36.384Z,98897.55
2017-09-20T23:15:04.725Z,98897.16
2017-09-20T23:17:33.079Z,98899.05
2017-09-20T23:20:01.396Z,98900.05
2017-09-20T23:22:29.760Z,98897.69
2017-09-20T23:24:58.102Z,98900.40
2017-09-20T23:27:26.887Z,98894.88
2017-09-20T23:29:55.204Z,98898.59
2017-09-20T23:32:23.512Z,98894.77
2017-09-20T23:34:51.842Z,98889.77
2017-09-20T23:37:20.175Z,98883.49
2017-09-20T23:39:48.517Z,98895.28
2017-09-20T23:42:16.841Z,98891.92
2017-09-20T23:44:46.957Z,98894.83
2017-09-20T23:47:15.281Z,98893.18
2017-09-20T23:49:43.583Z,98893.80
2017-09-20T23:52:12.406Z,98896.27
2017-09-20T23:54:41.482Z,98895.53
2017-09-20T23:57:09.832Z,98894.11
2017-09-20T23:59:39.093Z,98892.17
